sensor_id;sensor_type;location;lat;lon;timestamp;pressure;altitude;pressure_sealevel;temperature;humidity
10946;BME280;5525;42.648;23.368;2022-10-18T00:01:33;96158.81;;;6.30;100.00
10946;BME280;5525;42.648;23.368;2022-10-18T00:04:00;96187.91;;;6.53;100.00
10946;BME280;5525;42.648;23.368;2022-10-18T00:06:27;96179.28;;;6.51;100.00
10946;BME280;5525;42.648;23.368;2022-10-18T00:08:54;96176.81;;;6.34;100.00
10946;BME280;5525;42.648;23.368;2022-10-18T00:11:21;96184.59;;;6.36;100.00
10946;BME280;5525;42.648;23.368;2022-10-18T00:13:48;96167.38;;;6.27;100.00
10946;BME280;5525;42.648;23.368;2022-10-18T00:16:17;96177.03;;;6.28;100.00
10946;BME280;5525;42.648;23.368;2022-10-18T00:18:44;96172.44;;;6.23;100.00
10946;BME280;5525;42.648;23.368;2022-10-18T00:21:14;96152.28;;;6.16;100.00
10946;BME280;5525;42.648;23.368;2022-10-18T00:23:42;96168.81;;;5.98;100.00
10946;BME280;5525;42.648;23.368;2022-10-18T00:26:13;96165.88;;;6.04;100.00
10946;BME280;5525;42.648;23.368;2022-10-18T00:28:40;96155.72;;;6.06;100.00
10946;BME280;5525;42.648;23.368;2022-10-18T00:31:12;96158.34;;;5.96;100.00
10946;BME280;5525;42.648;23.368;2022-10-18T00:33:41;96132.28;;;5.87;100.00
10946;BME280;5525;42.648;23.368;2022-10-18T00:36:08;96143.31;;;5.90;100.00
10946;BME280;5525;42.648;23.368;2022-10-18T00:38:35;96133.81;;;5.78;100.00
10946;BME280;5525;42.648;23.368;2022-10-18T00:41:03;96155.66;;;5.96;100.00
10946;BME280;5525;42.648;23.368;2022-10-18T00:43:30;96147.06;;;5.94;100.00
10946;BME280;5525;42.648;23.368;2022-10-18T00:45:57;96146.56;;;5.97;100.00
10946;BME280;5525;42.648;23.368;2022-10-18T00:48:24;96152.56;;;5.78;100.00
10946;BME280;5525;42.648;23.368;2022-10-18T00:50:53;96121.69;;;5.75;100.00
10946;BME280;5525;42.648;23.368;2022-10-18T00:53:21;96143.56;;;5.89;100.00
10946;BME280;5525;42.648;23.368;2022-10-18T00:55:49;96148.41;;;5.97;100.00
10946;BME280;5525;42.648;23.368;2022-10-18T00:58:16;96143.66;;;6.04;100.00
10946;BME280;5525;42.648;23.368;2022-10-18T01:00:45;96134.81;;;6.08;100.00
10946;BME280;5525;42.648;23.368;2022-10-18T01:03:11;96139.34;;;6.03;100.00
10946;BME280;5525;42.648;23.368;2022-10-18T01:05:43;96137.16;;;5.95;100.00
10946;BME280;5525;42.648;23.368;2022-10-18T01:08:33;96134.06;;;5.76;100.00
10946;BME280;5525;42.648;23.368;2022-10-18T01:11:14;96138.66;;;5.81;100.00
10946;BME280;5525;42.648;23.368;2022-10-18T01:13:59;96138.66;;;5.81;100.00
10946;BME280;5525;42.648;23.368;2022-10-18T01:16:35;96136.69;;;5.71;100.00
10946;BME280;5525;42.648;23.368;2022-10-18T01:19:13;96128.00;;;5.54;100.00
10946;BME280;5525;42.648;23.368;2022-10-18T01:21:49;96121.56;;;5.55;100.00
10946;BME280;5525;42.648;23.368;2022-10-18T01:24:35;96124.72;;;5.47;100.00
10946;BME280;5525;42.648;23.368;2022-10-18T01:27:33;96124.50;;;5.54;100.00
10946;BME280;5525;42.648;23.368;2022-10-18T01:30:39;96124.63;;;5.69;100.00
10946;BME280;5525;42.648;23.368;2022-10-18T01:33:15;96120.56;;;5.66;100.00
10946;BME280;5525;42.648;23.368;2022-10-18T01:35:49;96107.88;;;5.52;100.00
10946;BME280;5525;42.648;23.368;2022-10-18T01:38:18;96127.19;;;5.54;100.00
10946;BME280;5525;42.648;23.368;2022-10-18T01:40:48;96119.13;;;5.54;100.00
10946;BME280;5525;42.648;23.368;2022-10-18T01:43:17;96107.84;;;5.47;100.00
10946;BME280;5525;42.648;23.368;2022-10-18T01:45:47;96113.47;;;5.45;100.00
10946;BME280;5525;42.648;23.368;2022-10-18T01:48:15;96113.88;;;5.32;100.00
10946;BME280;5525;42.648;23.368;2022-10-18T01:50:42;96119.97;;;5.22;100.00
10946;BME280;5525;42.648;23.368;2022-10-18T01:53:27;96112.53;;;5.30;100.00
10946;BME280;5525;42.648;23.368;2022-10-18T01:56:14;96117.22;;;5.44;100.00
10946;BME280;5525;42.648;23.368;2022-10-18T01:58:48;96111.63;;;5.51;100.00
10946;BME280;5525;42.648;23.368;2022-10-18T02:01:27;96117.38;;;5.64;100.00
10946;BME280;5525;42.648;23.368;2022-10-18T02:04:00;96122.81;;;5.79;100.00
10946;BME280;5525;42.648;23.368;2022-10-18T02:06:34;96110.03;;;5.86;100.00
10946;BME280;5525;42.648;23.368;2022-10-18T02:09:08;96100.31;;;5.80;100.00
10946;BME280;5525;42.648;23.368;2022-10-18T02:11:37;96107.25;;;5.81;100.00
10946;BME280;5525;42.648;23.368;2022-10-18T02:14:07;96098.00;;;5.89;100.00
10946;BME280;5525;42.648;23.368;2022-10-18T02:16:40;96093.22;;;6.06;100.00
10946;BME280;5525;42.648;23.368;2022-10-18T02:19:09;96092.19;;;6.07;100.00
10946;BME280;5525;42.648;23.368;2022-10-18T02:21:39;96085.78;;;6.13;100.00
10946;BME280;5525;42.648;23.368;2022-10-18T02:24:07;96080.94;;;6.10;100.00
10946;BME280;5525;42.648;23.368;2022-10-18T02:26:35;96088.44;;;6.13;100.00
10946;BME280;5525;42.648;23.368;2022-10-18T02:29:02;96068.34;;;6.15;100.00
10946;BME280;5525;42.648;23.368;2022-10-18T02:31:33;96086.66;;;6.28;100.00
10946;BME280;5525;42.648;23.368;2022-10-18T02:34:08;96071.88;;;6.26;100.00
10946;BME280;5525;42.648;23.368;2022-10-18T02:36:41;96087.69;;;6.27;100.00
10946;BME280;5525;42.648;23.368;2022-10-18T02:39:11;96080.97;;;6.20;100.00
10946;BME280;5525;42.648;23.368;2022-10-18T02:41:40;96095.44;;;6.19;100.00
10946;BME280;5525;42.648;23.368;2022-10-18T02:44:07;96098.63;;;6.11;100.00
10946;BME280;5525;42.648;23.368;2022-10-18T02:46:34;96099.16;;;6.08;100.00
10946;BME280;5525;42.648;23.368;2022-10-18T02:49:02;96099.63;;;6.00;100.00
10946;BME280;5525;42.648;23.368;2022-10-18T02:51:30;96098.28;;;5.97;100.00
10946;BME280;5525;42.648;23.368;2022-10-18T02:53:57;96103.50;;;5.77;100.00
10946;BME280;5525;42.648;23.368;2022-10-18T02:56:24;96101.91;;;5.76;100.00
10946;BME280;5525;42.648;23.368;2022-10-18T02:58:51;96082.34;;;5.39;100.00
10946;BME280;5525;42.648;23.368;2022-10-18T03:01:18;96098.16;;;5.41;100.00
10946;BME280;5525;42.648;23.368;2022-10-18T03:03:44;96092.94;;;5.24;100.00
10946;BME280;5525;42.648;23.368;2022-10-18T03:06:11;96081.97;;;5.26;100.00
10946;BME280;5525;42.648;23.368;2022-10-18T03:08:39;96097.75;;;5.59;100.00
10946;BME280;5525;42.648;23.368;2022-10-18T03:11:06;96074.88;;;5.46;100.00
10946;BME280;5525;42.648;23.368;2022-10-18T03:13:33;96094.91;;;5.70;100.00
10946;BME280;5525;42.648;23.368;2022-10-18T03:16:01;96097.41;;;5.82;100.00
10946;BME280;5525;42.648;23.368;2022-10-18T03:18:27;96093.06;;;5.81;100.00
10946;BME280;5525;42.648;23.368;2022-10-18T03:20:54;96096.09;;;5.84;100.00
10946;BME280;5525;42.648;23.368;2022-10-18T03:23:21;96093.88;;;5.81;100.00
10946;BME280;5525;42.648;23.368;2022-10-18T03:25:49;96099.81;;;5.83;100.00
10946;BME280;5525;42.648;23.368;2022-10-18T03:28:16;96102.25;;;5.85;100.00
10946;BME280;5525;42.648;23.368;2022-10-18T03:30:43;96092.25;;;5.80;100.00
10946;BME280;5525;42.648;23.368;2022-10-18T03:33:10;96089.53;;;5.70;100.00
10946;BME280;5525;42.648;23.368;2022-10-18T03:35:36;96102.38;;;5.68;100.00
10946;BME280;5525;42.648;23.368;2022-10-18T03:38:03;96102.53;;;5.52;100.00
10946;BME280;5525;42.648;23.368;2022-10-18T03:40:30;96093.97;;;5.55;100.00
10946;BME280;5525;42.648;23.368;2022-10-18T03:42:59;96104.97;;;5.58;100.00
10946;BME280;5525;42.648;23.368;2022-10-18T03:45:26;96090.59;;;5.33;100.00
10946;BME280;5525;42.648;23.368;2022-10-18T03:47:53;96111.09;;;5.54;100.00
10946;BME280;5525;42.648;23.368;2022-10-18T03:50:20;96102.75;;;5.45;100.00
10946;BME280;5525;42.648;23.368;2022-10-18T03:52:46;96115.88;;;5.47;100.00
10946;BME280;5525;42.648;23.368;2022-10-18T03:55:13;96108.41;;;5.49;100.00
10946;BME280;5525;42.648;23.368;2022-10-18T03:57:40;96093.56;;;5.36;100.00
10946;BME280;5525;42.648;23.368;2022-10-18T04:00:10;96109.97;;;5.45;100.00
10946;BME280;5525;42.648;23.368;2022-10-18T04:02:37;96116.19;;;5.18;100.00
10946;BME280;5525;42.648;23.368;2022-10-18T04:05:04;96113.78;;;4.90;100.00
10946;BME280;5525;42.648;23.368;2022-10-18T04:07:32;96115.38;;;4.65;100.00
10946;BME280;5525;42.648;23.368;2022-10-18T04:09:59;96109.69;;;4.56;100.00
10946;BME280;5525;42.648;23.368;2022-10-18T04:12:26;96095.53;;;4.34;100.00
10946;BME280;5525;42.648;23.368;2022-10-18T04:14:53;96113.41;;;4.34;100.00
10946;BME280;5525;42.648;23.368;2022-10-18T04:17:21;96107.91;;;4.19;100.00
10946;BME280;5525;42.648;23.368;2022-10-18T04:19:48;96104.53;;;4.07;100.00
10946;BME280;5525;42.648;23.368;2022-10-18T04:22:15;96111.06;;;4.16;100.00
10946;BME280;5525;42.648;23.368;2022-10-18T04:24:41;96111.22;;;4.26;100.00
10946;BME280;5525;42.648;23.368;2022-10-18T04:27:08;96103.19;;;4.26;100.00
10946;BME280;5525;42.648;23.368;2022-10-18T04:29:35;96096.19;;;4.03;100.00
10946;BME280;5525;42.648;23.368;2022-10-18T04:32:02;96116.84;;;4.08;100.00
10946;BME280;5525;42.648;23.368;2022-10-18T04:34:31;96110.13;;;4.05;100.00
10946;BME280;5525;42.648;23.368;2022-10-18T04:36:58;96100.25;;;4.06;100.00
10946;BME280;5525;42.648;23.368;2022-10-18T04:39:25;96094.91;;;4.06;100.00
10946;BME280;5525;42.648;23.368;2022-10-18T04:41:52;96095.28;;;4.14;100.00
10946;BME280;5525;42.648;23.368;2022-10-18T04:44:20;96088.75;;;4.05;100.00
10946;BME280;5525;42.648;23.368;2022-10-18T04:46:48;96105.16;;;4.14;100.00
10946;BME280;5525;42.648;23.368;2022-10-18T04:49:15;96100.69;;;4.19;100.00
10946;BME280;5525;42.648;23.368;2022-10-18T04:51:43;96095.34;;;4.41;100.00
10946;BME280;5525;42.648;23.368;2022-10-18T04:54:10;96080.72;;;4.48;100.00
10946;BME280;5525;42.648;23.368;2022-10-18T04:56:38;96099.09;;;4.66;100.00
10946;BME280;5525;42.648;23.368;2022-10-18T04:59:05;96070.09;;;4.58;100.00
10946;BME280;5525;42.648;23.368;2022-10-18T05:01:32;96087.81;;;4.91;100.00
10946;BME280;5525;42.648;23.368;2022-10-18T05:03:59;96094.56;;;4.98;100.00
10946;BME280;5525;42.648;23.368;2022-10-18T05:06:26;96091.41;;;5.01;100.00
10946;BME280;5525;42.648;23.368;2022-10-18T05:08:55;96084.31;;;5.17;100.00
10946;BME280;5525;42.648;23.368;2022-10-18T05:11:23;96067.31;;;5.01;100.00
10946;BME280;5525;42.648;23.368;2022-10-18T05:13:50;96085.78;;;5.35;100.00
10946;BME280;5525;42.648;23.368;2022-10-18T05:16:17;96079.56;;;5.29;100.00
10946;BME280;5525;42.648;23.368;2022-10-18T05:18:44;96084.91;;;5.24;100.00
10946;BME280;5525;42.648;23.368;2022-10-18T05:21:11;96082.75;;;5.26;100.00
10946;BME280;5525;42.648;23.368;2022-10-18T05:23:45;96075.22;;;5.18;100.00
10946;BME280;5525;42.648;23.368;2022-10-18T05:26:13;96093.22;;;5.28;100.00
10946;BME280;5525;42.648;23.368;2022-10-18T05:28:40;96088.56;;;5.13;100.00
10946;BME280;5525;42.648;23.368;2022-10-18T05:31:09;96085.28;;;5.06;100.00
10946;BME280;5525;42.648;23.368;2022-10-18T05:33:36;96062.84;;;4.80;100.00
10946;BME280;5525;42.648;23.368;2022-10-18T05:36:04;96088.03;;;4.84;100.00
10946;BME280;5525;42.648;23.368;2022-10-18T05:38:31;96093.59;;;5.09;100.00
10946;BME280;5525;42.648;23.368;2022-10-18T05:40:58;96088.59;;;4.86;100.00
10946;BME280;5525;42.648;23.368;2022-10-18T05:43:28;96102.34;;;5.00;100.00
10946;BME280;5525;42.648;23.368;2022-10-18T05:45:55;96099.59;;;5.16;100.00
10946;BME280;5525;42.648;23.368;2022-10-18T05:48:22;96103.16;;;5.32;100.00
10946;BME280;5525;42.648;23.368;2022-10-18T05:50:50;96087.97;;;5.38;100.00
10946;BME280;5525;42.648;23.368;2022-10-18T05:53:16;96100.38;;;5.54;100.00
10946;BME280;5525;42.648;23.368;2022-10-18T05:55:43;96099.34;;;5.23;100.00
10946;BME280;5525;42.648;23.368;2022-10-18T05:58:10;96106.53;;;5.17;100.00
10946;BME280;5525;42.648;23.368;2022-10-18T06:00:39;96103.03;;;5.17;100.00
10946;BME280;5525;42.648;23.368;2022-10-18T06:03:06;96095.84;;;5.17;100.00
10946;BME280;5525;42.648;23.368;2022-10-18T06:05:33;96090.53;;;5.28;100.00
10946;BME280;5525;42.648;23.368;2022-10-18T06:08:00;96092.34;;;5.54;100.00
10946;BME280;5525;42.648;23.368;2022-10-18T06:10:27;96089.25;;;5.67;100.00
10946;BME280;5525;42.648;23.368;2022-10-18T06:12:54;96098.41;;;5.76;100.00
10946;BME280;5525;42.648;23.368;2022-10-18T06:15:21;96107.25;;;5.76;100.00
10946;BME280;5525;42.648;23.368;2022-10-18T06:17:49;96105.00;;;5.95;100.00
10946;BME280;5525;42.648;23.368;2022-10-18T06:20:17;96100.03;;;6.23;100.00
10946;BME280;5525;42.648;23.368;2022-10-18T06:22:44;96097.66;;;6.27;100.00
10946;BME280;5525;42.648;23.368;2022-10-18T06:25:11;96094.78;;;6.53;100.00
10946;BME280;5525;42.648;23.368;2022-10-18T06:27:38;96103.75;;;6.84;100.00
10946;BME280;5525;42.648;23.368;2022-10-18T06:30:07;96089.00;;;7.02;100.00
10946;BME280;5525;42.648;23.368;2022-10-18T06:32:34;96093.56;;;7.26;100.00
10946;BME280;5525;42.648;23.368;2022-10-18T06:35:02;96087.16;;;7.42;100.00
10946;BME280;5525;42.648;23.368;2022-10-18T06:37:29;96085.50;;;7.66;100.00
10946;BME280;5525;42.648;23.368;2022-10-18T06:39:57;96075.81;;;7.80;100.00
10946;BME280;5525;42.648;23.368;2022-10-18T06:42:24;96081.16;;;7.95;100.00
10946;BME280;5525;42.648;23.368;2022-10-18T06:44:51;96061.00;;;7.98;100.00
10946;BME280;5525;42.648;23.368;2022-10-18T06:47:18;96079.47;;;8.24;100.00
10946;BME280;5525;42.648;23.368;2022-10-18T06:49:45;96086.69;;;8.44;100.00
10946;BME280;5525;42.648;23.368;2022-10-18T06:52:15;96080.97;;;8.50;100.00
10946;BME280;5525;42.648;23.368;2022-10-18T06:54:42;96091.44;;;8.67;100.00
10946;BME280;5525;42.648;23.368;2022-10-18T06:57:09;96080.34;;;8.74;100.00
10946;BME280;5525;42.648;23.368;2022-10-18T06:59:36;96082.72;;;8.80;100.00
10946;BME280;5525;42.648;23.368;2022-10-18T07:02:03;96076.47;;;8.95;100.00
10946;BME280;5525;42.648;23.368;2022-10-18T07:04:32;96075.06;;;9.02;100.00
10946;BME280;5525;42.648;23.368;2022-10-18T07:07:00;96079.03;;;9.15;100.00
10946;BME280;5525;42.648;23.368;2022-10-18T07:09:29;96057.75;;;9.13;99.51
10946;BME280;5525;42.648;23.368;2022-10-18T07:11:56;96081.34;;;9.26;98.25
10946;BME280;5525;42.648;23.368;2022-10-18T07:14:23;96077.69;;;9.46;98.38
10946;BME280;5525;42.648;23.368;2022-10-18T07:16:50;96078.88;;;9.63;96.30
10946;BME280;5525;42.648;23.368;2022-10-18T07:19:18;96064.44;;;9.49;95.69
10946;BME280;5525;42.648;23.368;2022-10-18T07:21:45;96081.31;;;9.65;93.63
10946;BME280;5525;42.648;23.368;2022-10-18T07:24:12;96085.56;;;9.71;93.16
10946;BME280;5525;42.648;23.368;2022-10-18T07:26:42;96081.69;;;9.82;91.58
10946;BME280;5525;42.648;23.368;2022-10-18T07:29:10;96043.31;;;9.61;92.01
10946;BME280;5525;42.648;23.368;2022-10-18T07:31:37;96076.75;;;9.89;93.19
10946;BME280;5525;42.648;23.368;2022-10-18T07:34:06;96060.47;;;9.70;94.25
10946;BME280;5525;42.648;23.368;2022-10-18T07:36:34;96070.91;;;9.82;93.69
10946;BME280;5525;42.648;23.368;2022-10-18T07:39:01;96070.97;;;9.72;93.56
10946;BME280;5525;42.648;23.368;2022-10-18T07:41:28;96056.22;;;9.64;94.33
10946;BME280;5525;42.648;23.368;2022-10-18T07:43:59;96058.91;;;9.64;96.25
10946;BME280;5525;42.648;23.368;2022-10-18T07:46:27;96064.56;;;9.68;95.81
10946;BME280;5525;42.648;23.368;2022-10-18T07:48:54;96067.66;;;9.80;93.49
10946;BME280;5525;42.648;23.368;2022-10-18T07:51:24;96066.56;;;9.52;95.67
10946;BME280;5525;42.648;23.368;2022-10-18T07:53:52;96046.06;;;9.85;93.72
10946;BME280;5525;42.648;23.368;2022-10-18T07:56:20;96046.41;;;10.07;91.90
10946;BME280;5525;42.648;23.368;2022-10-18T07:58:48;96045.16;;;10.18;91.03
10946;BME280;5525;42.648;23.368;2022-10-18T08:01:18;96040.75;;;10.27;91.17
10946;BME280;5525;42.648;23.368;2022-10-18T08:03:46;96034.66;;;10.40;90.67
10946;BME280;5525;42.648;23.368;2022-10-18T08:06:15;96048.41;;;10.62;89.59
10946;BME280;5525;42.648;23.368;2022-10-18T08:08:43;96038.81;;;10.75;87.16
10946;BME280;5525;42.648;23.368;2022-10-18T08:11:13;96038.28;;;10.73;85.57
10946;BME280;5525;42.648;23.368;2022-10-18T08:13:41;96030.88;;;10.78;85.62
10946;BME280;5525;42.648;23.368;2022-10-18T08:16:11;96026.13;;;10.89;86.20
10946;BME280;5525;42.648;23.368;2022-10-18T08:18:40;96026.13;;;10.89;85.02
10946;BME280;5525;42.648;23.368;2022-10-18T08:21:08;96020.03;;;11.02;83.95
10946;BME280;5525;42.648;23.368;2022-10-18T08:23:38;96005.41;;;11.03;83.37
10946;BME280;5525;42.648;23.368;2022-10-18T08:26:08;96007.56;;;11.19;83.16
10946;BME280;5525;42.648;23.368;2022-10-18T08:28:35;96012.56;;;11.44;83.48
10946;BME280;5525;42.648;23.368;2022-10-18T08:31:03;96008.00;;;11.58;81.94
10946;BME280;5525;42.648;23.368;2022-10-18T08:33:30;96004.56;;;11.85;80.44
10946;BME280;5525;42.648;23.368;2022-10-18T08:36:00;95985.50;;;11.90;78.14
10946;BME280;5525;42.648;23.368;2022-10-18T08:38:30;95999.16;;;11.99;77.49
10946;BME280;5525;42.648;23.368;2022-10-18T08:40:58;95999.06;;;12.17;77.24
10946;BME280;5525;42.648;23.368;2022-10-18T08:43:32;95984.13;;;12.20;76.20
10946;BME280;5525;42.648;23.368;2022-10-18T08:46:00;95971.16;;;12.30;74.66
10946;BME280;5525;42.648;23.368;2022-10-18T08:48:32;95985.00;;;12.56;72.89
10946;BME280;5525;42.648;23.368;2022-10-18T08:51:04;95972.28;;;12.78;72.06
10946;BME280;5525;42.648;23.368;2022-10-18T08:53:36;95978.94;;;12.72;71.55
10946;BME280;5525;42.648;23.368;2022-10-18T08:56:09;95961.69;;;13.04;69.20
10946;BME280;5525;42.648;23.368;2022-10-18T08:58:41;95964.16;;;13.14;67.82
10946;BME280;5525;42.648;23.368;2022-10-18T09:01:18;95964.81;;;13.41;66.56
10946;BME280;5525;42.648;23.368;2022-10-18T09:04:00;95944.25;;;13.40;65.18
10946;BME280;5525;42.648;23.368;2022-10-18T09:06:41;95967.97;;;13.57;64.78
10946;BME280;5525;42.648;23.368;2022-10-18T09:09:21;95954.50;;;13.83;63.08
10946;BME280;5525;42.648;23.368;2022-10-18T09:12:01;95944.84;;;13.99;61.24
10946;BME280;5525;42.648;23.368;2022-10-18T09:15:00;95930.47;;;13.98;61.13
10946;BME280;5525;42.648;23.368;2022-10-18T09:17:38;95934.44;;;14.31;60.71
10946;BME280;5525;42.648;23.368;2022-10-18T09:20:21;95951.75;;;14.61;57.77
10946;BME280;5525;42.648;23.368;2022-10-18T09:22:55;95946.81;;;14.88;56.89
10946;BME280;5525;42.648;23.368;2022-10-18T09:25:24;95934.50;;;15.08;55.43
10946;BME280;5525;42.648;23.368;2022-10-18T09:27:54;95935.59;;;15.41;54.35
10946;BME280;5525;42.648;23.368;2022-10-18T09:30:28;95941.06;;;15.96;52.76
10946;BME280;5525;42.648;23.368;2022-10-18T09:33:03;95930.56;;;16.94;49.62
10946;BME280;5525;42.648;23.368;2022-10-18T09:35:40;95919.16;;;18.98;43.23
10946;BME280;5525;42.648;23.368;2022-10-18T09:38:16;95915.34;;;22.34;37.10
10946;BME280;5525;42.648;23.368;2022-10-18T09:40:50;95922.22;;;26.43;30.20
10946;BME280;5525;42.648;23.368;2022-10-18T09:43:20;95927.72;;;29.68;24.94
10946;BME280;5525;42.648;23.368;2022-10-18T09:45:49;95934.06;;;31.70;22.60
10946;BME280;5525;42.648;23.368;2022-10-18T09:48:21;95938.06;;;33.88;19.67
10946;BME280;5525;42.648;23.368;2022-10-18T09:50:54;95940.91;;;34.55;18.01
10946;BME280;5525;42.648;23.368;2022-10-18T09:53:31;95937.06;;;34.86;17.05
10946;BME280;5525;42.648;23.368;2022-10-18T09:56:04;95940.38;;;36.43;16.18
10946;BME280;5525;42.648;23.368;2022-10-18T09:58:41;95937.00;;;37.45;15.41
10946;BME280;5525;42.648;23.368;2022-10-18T10:01:09;95922.41;;;36.80;15.12
10946;BME280;5525;42.648;23.368;2022-10-18T10:03:37;95927.03;;;36.65;14.82
10946;BME280;5525;42.648;23.368;2022-10-18T10:06:19;95913.38;;;38.74;14.09
10946;BME280;5525;42.648;23.368;2022-10-18T10:08:54;95920.41;;;40.20;13.24
10946;BME280;5525;42.648;23.368;2022-10-18T10:11:32;95916.22;;;40.89;12.16
10946;BME280;5525;42.648;23.368;2022-10-18T10:14:21;95912.94;;;41.65;11.47
10946;BME280;5525;42.648;23.368;2022-10-18T10:16:52;95900.84;;;41.30;11.37
10946;BME280;5525;42.648;23.368;2022-10-18T10:19:23;95899.38;;;39.60;12.10
10946;BME280;5525;42.648;23.368;2022-10-18T10:21:52;95887.16;;;40.30;11.80
10946;BME280;5525;42.648;23.368;2022-10-18T10:24:24;95865.47;;;39.13;11.98
10946;BME280;5525;42.648;23.368;2022-10-18T10:26:58;95875.00;;;40.00;11.66
10946;BME280;5525;42.648;23.368;2022-10-18T10:29:48;95872.25;;;40.79;11.14
10946;BME280;5525;42.648;23.368;2022-10-18T10:32:20;95867.03;;;41.26;10.68
10946;BME280;5525;42.648;23.368;2022-10-18T10:34:47;95861.63;;;40.45;10.99
10946;BME280;5525;42.648;23.368;2022-10-18T10:37:32;95852.50;;;38.32;11.26
10946;BME280;5525;42.648;23.368;2022-10-18T10:40:18;95845.88;;;37.48;12.37
10946;BME280;5525;42.648;23.368;2022-10-18T10:43:13;95837.09;;;37.55;13.04
10946;BME280;5525;42.648;23.368;2022-10-18T10:45:55;95831.47;;;38.33;11.90
10946;BME280;5525;42.648;23.368;2022-10-18T10:48:24;95819.56;;;38.94;11.40
10946;BME280;5525;42.648;23.368;2022-10-18T10:50:55;95827.72;;;39.77;10.81
10946;BME280;5525;42.648;23.368;2022-10-18T10:53:29;95814.03;;;39.47;11.24
10946;BME280;5525;42.648;23.368;2022-10-18T10:56:04;95783.03;;;39.52;11.27
10946;BME280;5525;42.648;23.368;2022-10-18T10:58:36;95816.13;;;39.75;10.44
10946;BME280;5525;42.648;23.368;2022-10-18T11:01:18;95803.72;;;37.54;11.79
10946;BME280;5525;42.648;23.368;2022-10-18T11:03:47;95802.16;;;37.62;11.80
10946;BME280;5525;42.648;23.368;2022-10-18T11:06:43;95791.31;;;38.70;11.24
10946;BME280;5525;42.648;23.368;2022-10-18T11:09:21;95783.41;;;38.84;11.02
10946;BME280;5525;42.648;23.368;2022-10-18T11:12:09;95789.72;;;38.13;11.35
10946;BME280;5525;42.648;23.368;2022-10-18T11:14:40;95779.16;;;37.54;11.27
10946;BME280;5525;42.648;23.368;2022-10-18T11:17:19;95784.78;;;39.12;10.78
10946;BME280;5525;42.648;23.368;2022-10-18T11:20:00;95763.38;;;37.98;11.03
10946;BME280;5525;42.648;23.368;2022-10-18T11:22:34;95740.97;;;38.13;11.08
10946;BME280;5525;42.648;23.368;2022-10-18T11:25:03;95761.97;;;36.98;11.41
10946;BME280;5525;42.648;23.368;2022-10-18T11:27:36;95752.25;;;37.44;11.27
10946;BME280;5525;42.648;23.368;2022-10-18T11:30:26;95740.66;;;36.88;11.09
10946;BME280;5525;42.648;23.368;2022-10-18T11:33:03;95733.09;;;37.57;11.03
10946;BME280;5525;42.648;23.368;2022-10-18T11:35:38;95726.22;;;37.67;11.02
10946;BME280;5525;42.648;23.368;2022-10-18T11:38:20;95737.09;;;36.96;10.74
10946;BME280;5525;42.648;23.368;2022-10-18T11:41:08;95737.69;;;36.91;11.02
10946;BME280;5525;42.648;23.368;2022-10-18T11:43:46;95714.19;;;36.10;10.89
10946;BME280;5525;42.648;23.368;2022-10-18T11:46:24;95723.59;;;36.16;10.72
10946;BME280;5525;42.648;23.368;2022-10-18T11:49:15;95689.44;;;35.87;11.08
10946;BME280;5525;42.648;23.368;2022-10-18T11:51:58;95686.78;;;35.83;10.21
10946;BME280;5525;42.648;23.368;2022-10-18T11:54:44;95686.06;;;36.01;10.46
10946;BME280;5525;42.648;23.368;2022-10-18T11:57:28;95702.72;;;35.34;10.57
10946;BME280;5525;42.648;23.368;2022-10-18T12:00:08;95679.75;;;35.57;10.51
10946;BME280;5525;42.648;23.368;2022-10-18T12:03:10;95688.81;;;33.94;10.96
10946;BME280;5525;42.648;23.368;2022-10-18T12:05:42;95668.88;;;33.92;11.00
10946;BME280;5525;42.648;23.368;2022-10-18T12:08:12;95680.34;;;32.61;11.51
10946;BME280;5525;42.648;23.368;2022-10-18T12:10:47;95648.06;;;32.00;12.00
10946;BME280;5525;42.648;23.368;2022-10-18T12:13:20;95667.56;;;31.16;12.48
10946;BME280;5525;42.648;23.368;2022-10-18T12:15:51;95645.19;;;31.87;12.17
10946;BME280;5525;42.648;23.368;2022-10-18T12:18:24;95650.41;;;32.01;11.84
10946;BME280;5525;42.648;23.368;2022-10-18T12:20:54;95646.97;;;31.62;11.80
10946;BME280;5525;42.648;23.368;2022-10-18T12:23:34;95647.06;;;31.58;11.78
10946;BME280;5525;42.648;23.368;2022-10-18T12:26:05;95639.28;;;32.14;11.70
10946;BME280;5525;42.648;23.368;2022-10-18T12:28:37;95635.25;;;30.60;12.21
10946;BME280;5525;42.648;23.368;2022-10-18T12:31:16;95619.06;;;31.26;11.73
10946;BME280;5525;42.648;23.368;2022-10-18T12:33:47;95622.34;;;31.05;11.28
10946;BME280;5525;42.648;23.368;2022-10-18T12:36:41;95624.63;;;30.12;11.91
10946;BME280;5525;42.648;23.368;2022-10-18T12:39:16;95617.44;;;29.92;12.69
10946;BME280;5525;42.648;23.368;2022-10-18T12:41:46;95606.00;;;28.46;13.83
10946;BME280;5525;42.648;23.368;2022-10-18T12:44:18;95616.63;;;28.25;13.99
10946;BME280;5525;42.648;23.368;2022-10-18T12:46:49;95618.28;;;27.74;13.17
10946;BME280;5525;42.648;23.368;2022-10-18T12:49:22;95612.44;;;27.62;13.21
10946;BME280;5525;42.648;23.368;2022-10-18T12:51:52;95603.59;;;26.58;14.61
10946;BME280;5525;42.648;23.368;2022-10-18T12:54:23;95596.69;;;25.97;14.59
10946;BME280;5525;42.648;23.368;2022-10-18T12:56:53;95609.78;;;25.26;14.73
10946;BME280;5525;42.648;23.368;2022-10-18T12:59:49;95606.19;;;24.80;14.92
10946;BME280;5525;42.648;23.368;2022-10-18T13:02:29;95609.53;;;24.24;15.61
10946;BME280;5525;42.648;23.368;2022-10-18T13:04:59;95606.31;;;24.12;15.74
10946;BME280;5525;42.648;23.368;2022-10-18T13:07:36;95594.41;;;24.01;15.61
10946;BME280;5525;42.648;23.368;2022-10-18T13:10:32;95590.97;;;23.53;16.02
10946;BME280;5525;42.648;23.368;2022-10-18T13:15:52;95589.66;;;22.93;16.64
10946;BME280;5525;42.648;23.368;2022-10-18T13:18:32;95580.91;;;22.84;16.20
10946;BME280;5525;42.648;23.368;2022-10-18T13:21:10;95584.81;;;22.43;16.17
10946;BME280;5525;42.648;23.368;2022-10-18T13:23:53;95568.72;;;22.45;16.57
10946;BME280;5525;42.648;23.368;2022-10-18T13:26:33;95570.03;;;22.58;16.85